sensor_id;sensor_type;location;lat;lon;timestamp;pressure;altitude;pressure_sealevel;temperature;humidity
69630;BME280;56857;52.212;5.496;2022-08-04T00:01:12;101358.03;;;22.11;70.38
69630;BME280;56857;52.212;5.496;2022-08-04T00:03:55;101349.31;;;22.09;70.41
69630;BME280;56857;52.212;5.496;2022-08-04T00:06:51;101344.16;;;22.07;70.64
69630;BME280;56857;52.212;5.496;2022-08-04T00:09:29;101345.22;;;22.06;70.68
69630;BME280;56857;52.212;5.496;2022-08-04T00:12:00;101345.66;;;22.03;70.99
69630;BME280;56857;52.212;5.496;2022-08-04T00:14:29;101345.91;;;22.02;70.79
69630;BME280;56857;52.212;5.496;2022-08-04T00:16:57;101339.72;;;22.01;70.64
69630;BME280;56857;52.212;5.496;2022-08-04T00:19:31;101346.38;;;21.98;70.64
69630;BME280;56857;52.212;5.496;2022-08-04T00:22:03;101350.16;;;21.97;70.67
69630;BME280;56857;52.212;5.496;2022-08-04T00:24:29;101344.16;;;21.95;71.15
69630;BME280;56857;52.212;5.496;2022-08-04T00:26:56;101348.94;;;21.93;71.13
69630;BME280;56857;52.212;5.496;2022-08-04T00:29:22;101340.50;;;21.90;71.37
69630;BME280;56857;52.212;5.496;2022-08-04T00:31:48;101335.56;;;21.87;71.54
69630;BME280;56857;52.212;5.496;2022-08-04T00:34:14;101334.16;;;21.84;71.54
69630;BME280;56857;52.212;5.496;2022-08-04T00:36:42;101334.59;;;21.81;71.66
69630;BME280;56857;52.212;5.496;2022-08-04T00:39:11;101327.81;;;21.79;71.78
69630;BME280;56857;52.212;5.496;2022-08-04T00:44:26;101319.34;;;21.75;71.97
69630;BME280;56857;52.212;5.496;2022-08-04T00:53:10;101327.78;;;21.67;72.08
69630;BME280;56857;52.212;5.496;2022-08-04T01:00:54;101320.84;;;21.59;72.58
69630;BME280;56857;52.212;5.496;2022-08-04T01:11:26;101313.31;;;21.49;72.60
69630;BME280;56857;52.212;5.496;2022-08-04T01:16:30;101310.25;;;21.46;73.17
69630;BME280;56857;52.212;5.496;2022-08-04T01:19:02;101309.69;;;21.44;73.22
69630;BME280;56857;52.212;5.496;2022-08-04T01:21:49;101300.38;;;21.40;73.31
69630;BME280;56857;52.212;5.496;2022-08-04T01:27:01;101294.00;;;21.34;73.72
69630;BME280;56857;52.212;5.496;2022-08-04T01:29:39;101295.28;;;21.32;73.82
69630;BME280;56857;52.212;5.496;2022-08-04T01:32:12;101287.66;;;21.28;74.00
69630;BME280;56857;52.212;5.496;2022-08-04T01:34:44;101297.03;;;21.26;73.92
69630;BME280;56857;52.212;5.496;2022-08-04T01:37:26;101284.81;;;21.23;73.59
69630;BME280;56857;52.212;5.496;2022-08-04T01:40:00;101287.53;;;21.23;74.37
69630;BME280;56857;52.212;5.496;2022-08-04T01:42:27;101290.69;;;21.20;74.23
69630;BME280;56857;52.212;5.496;2022-08-04T01:44:56;101285.53;;;21.19;74.39
69630;BME280;56857;52.212;5.496;2022-08-04T01:47:27;101283.28;;;21.16;74.49
69630;BME280;56857;52.212;5.496;2022-08-04T01:49:53;101285.59;;;21.12;74.53
69630;BME280;56857;52.212;5.496;2022-08-04T01:52:19;101283.38;;;21.09;74.31
69630;BME280;56857;52.212;5.496;2022-08-04T01:54:45;101286.06;;;21.09;74.23
69630;BME280;56857;52.212;5.496;2022-08-04T01:57:14;101294.38;;;21.08;74.25
69630;BME280;56857;52.212;5.496;2022-08-04T01:59:44;101283.44;;;21.02;74.37
69630;BME280;56857;52.212;5.496;2022-08-04T02:02:10;101286.13;;;21.02;74.31
69630;BME280;56857;52.212;5.496;2022-08-04T02:04:35;101279.94;;;21.02;74.20
69630;BME280;56857;52.212;5.496;2022-08-04T02:07:36;101291.97;;;20.99;74.13
69630;BME280;56857;52.212;5.496;2022-08-04T02:10:04;101275.81;;;20.99;74.10
69630;BME280;56857;52.212;5.496;2022-08-04T02:14:59;101276.25;;;20.96;74.42
69630;BME280;56857;52.212;5.496;2022-08-04T02:17:30;101280.84;;;20.96;74.83
69630;BME280;56857;52.212;5.496;2022-08-04T02:20:03;101271.38;;;20.93;74.84
69630;BME280;56857;52.212;5.496;2022-08-04T02:22:32;101275.91;;;20.93;75.30
69630;BME280;56857;52.212;5.496;2022-08-04T02:25:06;101272.63;;;20.91;75.09
69630;BME280;56857;52.212;5.496;2022-08-04T02:27:44;101269.56;;;20.87;75.31
69630;BME280;56857;52.212;5.496;2022-08-04T02:30:12;101277.41;;;20.89;75.78
69630;BME280;56857;52.212;5.496;2022-08-04T02:32:39;101274.34;;;20.85;75.31
69630;BME280;56857;52.212;5.496;2022-08-04T02:35:13;101275.63;;;20.82;75.32
69630;BME280;56857;52.212;5.496;2022-08-04T02:37:46;101267.78;;;20.81;75.76
69630;BME280;56857;52.212;5.496;2022-08-04T02:40:11;101260.97;;;20.78;76.20
69630;BME280;56857;52.212;5.496;2022-08-04T02:42:37;101259.91;;;20.79;76.12
69630;BME280;56857;52.212;5.496;2022-08-04T02:45:04;101256.41;;;20.79;76.05
69630;BME280;56857;52.212;5.496;2022-08-04T02:47:30;101256.03;;;20.75;76.20
69630;BME280;56857;52.212;5.496;2022-08-04T02:49:57;101252.97;;;20.72;76.12
69630;BME280;56857;52.212;5.496;2022-08-04T02:52:23;101255.06;;;20.70;76.23
69630;BME280;56857;52.212;5.496;2022-08-04T02:54:56;101262.31;;;20.69;76.21
69630;BME280;56857;52.212;5.496;2022-08-04T02:57:26;101256.34;;;20.67;76.41
69630;BME280;56857;52.212;5.496;2022-08-04T03:00:05;101253.06;;;20.65;76.71
69630;BME280;56857;52.212;5.496;2022-08-04T03:05:10;101248.13;;;20.62;76.42
69630;BME280;56857;52.212;5.496;2022-08-04T03:11:01;101247.16;;;20.56;76.77
69630;BME280;56857;52.212;5.496;2022-08-04T03:13:42;101245.72;;;20.54;76.48
69630;BME280;56857;52.212;5.496;2022-08-04T03:16:42;101242.63;;;20.50;76.76
69630;BME280;56857;52.212;5.496;2022-08-04T03:19:47;101238.31;;;20.49;76.78
69630;BME280;56857;52.212;5.496;2022-08-04T03:22:37;101250.91;;;20.49;76.73
69630;BME280;56857;52.212;5.496;2022-08-04T03:36:38;101237.78;;;20.41;76.84
69630;BME280;56857;52.212;5.496;2022-08-04T03:44:59;101238.69;;;20.34;77.39
69630;BME280;56857;52.212;5.496;2022-08-04T03:48:08;101234.78;;;20.30;77.21
69630;BME280;56857;52.212;5.496;2022-08-04T03:51:35;101235.63;;;20.31;77.45
69630;BME280;56857;52.212;5.496;2022-08-04T04:05:22;101242.34;;;20.22;77.59
69630;BME280;56857;52.212;5.496;2022-08-04T04:08:27;101241.72;;;20.20;77.53
69630;BME280;56857;52.212;5.496;2022-08-04T04:27:02;101234.16;;;20.10;78.24
69630;BME280;56857;52.212;5.496;2022-08-04T04:32:21;101242.41;;;20.15;78.33
69630;BME280;56857;52.212;5.496;2022-08-04T04:35:09;101237.84;;;20.16;78.48
69630;BME280;56857;52.212;5.496;2022-08-04T04:40:33;101234.09;;;20.17;78.45
69630;BME280;56857;52.212;5.496;2022-08-04T04:45:55;101238.22;;;20.19;79.29
69630;BME280;56857;52.212;5.496;2022-08-04T04:51:11;101239.66;;;20.22;78.89
69630;BME280;56857;52.212;5.496;2022-08-04T04:53:57;101235.91;;;20.23;78.38
69630;BME280;56857;52.212;5.496;2022-08-04T04:56:27;101234.63;;;20.25;78.62
69630;BME280;56857;52.212;5.496;2022-08-04T04:58:56;101236.50;;;20.25;78.65
69630;BME280;56857;52.212;5.496;2022-08-04T05:01:45;101234.19;;;20.28;78.97
69630;BME280;56857;52.212;5.496;2022-08-04T05:07:55;101241.56;;;20.33;78.84
69630;BME280;56857;52.212;5.496;2022-08-04T05:13:44;101250.19;;;20.42;78.56
69630;BME280;56857;52.212;5.496;2022-08-04T05:16:33;101247.19;;;20.50;78.91
69630;BME280;56857;52.212;5.496;2022-08-04T05:24:05;101252.78;;;20.48;80.92
69630;BME280;56857;52.212;5.496;2022-08-04T05:26:38;101247.59;;;20.53;80.78
69630;BME280;56857;52.212;5.496;2022-08-04T05:29:08;101251.41;;;20.64;80.61
69630;BME280;56857;52.212;5.496;2022-08-04T05:31:40;101258.13;;;20.73;79.95
69630;BME280;56857;52.212;5.496;2022-08-04T05:34:11;101251.00;;;20.79;79.08
69630;BME280;56857;52.212;5.496;2022-08-04T05:36:47;101254.69;;;20.85;78.80
69630;BME280;56857;52.212;5.496;2022-08-04T05:39:21;101254.34;;;20.93;78.80
69630;BME280;56857;52.212;5.496;2022-08-04T05:41:48;101259.63;;;20.99;78.77
69630;BME280;56857;52.212;5.496;2022-08-04T05:44:15;101262.94;;;21.01;79.31
69630;BME280;56857;52.212;5.496;2022-08-04T05:46:43;101264.56;;;21.02;79.58
69630;BME280;56857;52.212;5.496;2022-08-04T05:49:10;101261.56;;;21.11;79.16
69630;BME280;56857;52.212;5.496;2022-08-04T05:51:35;101250.84;;;21.22;78.96
69630;BME280;56857;52.212;5.496;2022-08-04T05:54:01;101257.41;;;21.26;78.13
69630;BME280;56857;52.212;5.496;2022-08-04T05:56:27;101252.97;;;21.32;78.08
69630;BME280;56857;52.212;5.496;2022-08-04T05:58:54;101248.78;;;21.36;78.14
69630;BME280;56857;52.212;5.496;2022-08-04T06:01:20;101255.34;;;21.40;77.61
69630;BME280;56857;52.212;5.496;2022-08-04T06:03:47;101246.94;;;21.48;77.57
69630;BME280;56857;52.212;5.496;2022-08-04T06:06:14;101255.53;;;21.57;77.82
69630;BME280;56857;52.212;5.496;2022-08-04T06:08:41;101256.22;;;21.64;78.29
69630;BME280;56857;52.212;5.496;2022-08-04T06:11:08;101243.09;;;21.68;77.78
69630;BME280;56857;52.212;5.496;2022-08-04T06:13:42;101239.69;;;21.72;77.07
69630;BME280;56857;52.212;5.496;2022-08-04T06:16:10;101247.56;;;21.74;76.80
69630;BME280;56857;52.212;5.496;2022-08-04T06:18:38;101252.00;;;21.80;76.68
69630;BME280;56857;52.212;5.496;2022-08-04T06:21:05;101257.28;;;21.87;76.50
69630;BME280;56857;52.212;5.496;2022-08-04T06:23:36;101256.97;;;21.95;76.42
69630;BME280;56857;52.212;5.496;2022-08-04T06:26:04;101249.81;;;22.01;76.80
69630;BME280;56857;52.212;5.496;2022-08-04T06:28:31;101246.38;;;22.05;76.44
69630;BME280;56857;52.212;5.496;2022-08-04T06:30:57;101257.53;;;22.09;76.56
69630;BME280;56857;52.212;5.496;2022-08-04T06:33:24;101245.19;;;22.13;76.26
69630;BME280;56857;52.212;5.496;2022-08-04T06:35:50;101241.19;;;22.15;77.11
69630;BME280;56857;52.212;5.496;2022-08-04T06:38:16;101244.06;;;22.20;77.02
69630;BME280;56857;52.212;5.496;2022-08-04T06:40:42;101246.38;;;22.29;76.71
69630;BME280;56857;52.212;5.496;2022-08-04T06:43:07;101247.09;;;22.36;76.59
69630;BME280;56857;52.212;5.496;2022-08-04T06:45:36;101249.31;;;22.39;76.40
69630;BME280;56857;52.212;5.496;2022-08-04T06:48:03;101254.34;;;22.47;76.06
69630;BME280;56857;52.212;5.496;2022-08-04T06:50:30;101255.75;;;22.50;77.43
69630;BME280;56857;52.212;5.496;2022-08-04T06:52:56;101258.44;;;22.50;78.59
69630;BME280;56857;52.212;5.496;2022-08-04T06:55:21;101264.19;;;22.53;78.67
69630;BME280;56857;52.212;5.496;2022-08-04T06:57:47;101268.06;;;22.57;77.78
69630;BME280;56857;52.212;5.496;2022-08-04T07:00:13;101263.00;;;22.61;77.33
69630;BME280;56857;52.212;5.496;2022-08-04T07:02:45;101268.03;;;22.69;76.57
69630;BME280;56857;52.212;5.496;2022-08-04T07:05:12;101274.13;;;22.76;76.20
69630;BME280;56857;52.212;5.496;2022-08-04T07:07:38;101260.38;;;22.78;76.05
69630;BME280;56857;52.212;5.496;2022-08-04T07:10:05;101262.91;;;22.84;75.58
69630;BME280;56857;52.212;5.496;2022-08-04T07:12:31;101260.81;;;22.86;75.09
69630;BME280;56857;52.212;5.496;2022-08-04T07:14:57;101269.16;;;22.85;74.95
69630;BME280;56857;52.212;5.496;2022-08-04T07:17:23;101285.94;;;22.87;74.78
69630;BME280;56857;52.212;5.496;2022-08-04T07:19:48;101278.53;;;22.94;74.64
69630;BME280;56857;52.212;5.496;2022-08-04T07:22:14;101281.25;;;22.94;74.96
69630;BME280;56857;52.212;5.496;2022-08-04T07:24:41;101283.59;;;23.02;74.82
69630;BME280;56857;52.212;5.496;2022-08-04T07:27:06;101283.09;;;23.05;74.85
69630;BME280;56857;52.212;5.496;2022-08-04T07:29:36;101283.59;;;23.02;74.55
69630;BME280;56857;52.212;5.496;2022-08-04T07:32:03;101282.78;;;23.02;74.52
69630;BME280;56857;52.212;5.496;2022-08-04T07:34:29;101288.72;;;23.04;74.61
69630;BME280;56857;52.212;5.496;2022-08-04T07:36:57;101284.72;;;23.06;74.53
69630;BME280;56857;52.212;5.496;2022-08-04T07:39:24;101283.81;;;23.01;74.97
69630;BME280;56857;52.212;5.496;2022-08-04T07:41:50;101289.22;;;23.01;76.09
69630;BME280;56857;52.212;5.496;2022-08-04T07:44:17;101286.50;;;23.01;75.28
69630;BME280;56857;52.212;5.496;2022-08-04T07:46:44;101290.88;;;23.02;75.17
69630;BME280;56857;52.212;5.496;2022-08-04T07:49:10;101292.03;;;23.06;75.42
69630;BME280;56857;52.212;5.496;2022-08-04T07:51:36;101290.13;;;23.06;75.44
69630;BME280;56857;52.212;5.496;2022-08-04T07:54:03;101293.44;;;23.08;75.26
69630;BME280;56857;52.212;5.496;2022-08-04T07:56:30;101285.31;;;23.08;75.30
69630;BME280;56857;52.212;5.496;2022-08-04T07:58:55;101292.94;;;23.11;75.77
69630;BME280;56857;52.212;5.496;2022-08-04T08:01:22;101283.53;;;23.14;75.50
69630;BME280;56857;52.212;5.496;2022-08-04T08:03:49;101296.31;;;23.19;76.10
69630;BME280;56857;52.212;5.496;2022-08-04T08:06:15;101291.25;;;23.22;75.90
69630;BME280;56857;52.212;5.496;2022-08-04T08:08:41;101301.56;;;23.25;75.73
69630;BME280;56857;52.212;5.496;2022-08-04T08:11:06;101304.06;;;23.27;75.19
69630;BME280;56857;52.212;5.496;2022-08-04T08:13:32;101295.69;;;23.28;75.51
69630;BME280;56857;52.212;5.496;2022-08-04T08:15:58;101298.16;;;23.30;75.93
69630;BME280;56857;52.212;5.496;2022-08-04T08:18:48;101302.00;;;23.34;76.38
69630;BME280;56857;52.212;5.496;2022-08-04T08:21:12;101296.78;;;23.44;76.01
69630;BME280;56857;52.212;5.496;2022-08-04T08:23:41;101298.28;;;23.52;75.56
69630;BME280;56857;52.212;5.496;2022-08-04T08:26:06;101302.94;;;23.56;75.72
69630;BME280;56857;52.212;5.496;2022-08-04T08:28:32;101303.28;;;23.60;75.71
69630;BME280;56857;52.212;5.496;2022-08-04T08:30:57;101299.59;;;23.66;75.22
69630;BME280;56857;52.212;5.496;2022-08-04T08:33:23;101306.06;;;23.65;74.76
69630;BME280;56857;52.212;5.496;2022-08-04T08:38:58;101307.78;;;23.54;73.15
69630;BME280;56857;52.212;5.496;2022-08-04T08:47:19;101307.59;;;23.61;74.27
69630;BME280;56857;52.212;5.496;2022-08-04T09:04:34;101319.28;;;24.29;70.17
69630;BME280;56857;52.212;5.496;2022-08-04T09:10:05;101328.22;;;24.46;71.37
69630;BME280;56857;52.212;5.496;2022-08-04T09:12:45;101333.84;;;24.62;70.84
69630;BME280;56857;52.212;5.496;2022-08-04T09:17:58;101339.06;;;24.90;69.96
69630;BME280;56857;52.212;5.496;2022-08-04T09:23:14;101341.13;;;24.78;68.22
69630;BME280;56857;52.212;5.496;2022-08-04T09:28:18;101352.09;;;24.88;67.75
69630;BME280;56857;52.212;5.496;2022-08-04T09:31:00;101356.34;;;25.06;68.17
69630;BME280;56857;52.212;5.496;2022-08-04T09:33:33;101354.78;;;25.32;66.35
69630;BME280;56857;52.212;5.496;2022-08-04T09:36:29;101350.41;;;25.31;64.13
69630;BME280;56857;52.212;5.496;2022-08-04T09:39:04;101345.88;;;25.37;65.23
69630;BME280;56857;52.212;5.496;2022-08-04T09:44:24;101357.22;;;25.88;62.13
69630;BME280;56857;52.212;5.496;2022-08-04T09:47:07;101353.28;;;26.06;61.41
69630;BME280;56857;52.212;5.496;2022-08-04T09:49:54;101360.44;;;26.17;62.56
69630;BME280;56857;52.212;5.496;2022-08-04T10:00:44;101357.34;;;26.93;60.20
69630;BME280;56857;52.212;5.496;2022-08-04T10:03:12;101358.59;;;27.43;60.21
69630;BME280;56857;52.212;5.496;2022-08-04T10:05:48;101362.16;;;27.69;58.08
69630;BME280;56857;52.212;5.496;2022-08-04T10:11:08;101369.03;;;27.87;54.03
69630;BME280;56857;52.212;5.496;2022-08-04T10:19:43;101376.53;;;27.29;55.41
69630;BME280;56857;52.212;5.496;2022-08-04T10:22:22;101381.19;;;27.39;55.92
69630;BME280;56857;52.212;5.496;2022-08-04T10:27:21;101383.16;;;26.86;55.01
69630;BME280;56857;52.212;5.496;2022-08-04T10:29:48;101391.25;;;26.70;55.78
69630;BME280;56857;52.212;5.496;2022-08-04T10:35:14;101399.16;;;26.34;55.39
69630;BME280;56857;52.212;5.496;2022-08-04T10:37:51;101397.19;;;26.25;57.08
69630;BME280;56857;52.212;5.496;2022-08-04T10:40:26;101400.63;;;26.15;56.48
69630;BME280;56857;52.212;5.496;2022-08-04T10:46:15;101425.09;;;25.61;57.15
69630;BME280;56857;52.212;5.496;2022-08-04T10:48:55;101425.81;;;25.51;57.13
69630;BME280;56857;52.212;5.496;2022-08-04T10:51:46;101427.97;;;25.27;55.47
69630;BME280;56857;52.212;5.496;2022-08-04T10:54:18;101424.06;;;25.18;56.80
69630;BME280;56857;52.212;5.496;2022-08-04T10:56:55;101405.75;;;24.86;56.94
69630;BME280;56857;52.212;5.496;2022-08-04T10:59:36;101399.06;;;24.72;57.23
69630;BME280;56857;52.212;5.496;2022-08-04T11:02:28;101424.44;;;24.66;57.53
69630;BME280;56857;52.212;5.496;2022-08-04T11:05:11;101429.19;;;24.59;57.69
69630;BME280;56857;52.212;5.496;2022-08-04T11:07:40;101440.41;;;24.62;57.72
69630;BME280;56857;52.212;5.496;2022-08-04T11:10:08;101435.78;;;24.46;57.20
69630;BME280;56857;52.212;5.496;2022-08-04T11:12:34;101424.03;;;24.40;58.03
69630;BME280;56857;52.212;5.496;2022-08-04T11:15:10;101421.72;;;24.32;58.57
69630;BME280;56857;52.212;5.496;2022-08-04T11:17:40;101444.16;;;24.27;58.42
69630;BME280;56857;52.212;5.496;2022-08-04T11:20:14;101444.97;;;24.28;59.04
69630;BME280;56857;52.212;5.496;2022-08-04T11:22:51;101445.38;;;24.37;59.24
69630;BME280;56857;52.212;5.496;2022-08-04T11:25:21;101446.41;;;24.47;59.73
69630;BME280;56857;52.212;5.496;2022-08-04T11:36:01;101432.03;;;24.86;58.89
69630;BME280;56857;52.212;5.496;2022-08-04T11:41:34;101423.75;;;25.14;58.32
69630;BME280;56857;52.212;5.496;2022-08-04T11:44:03;101431.78;;;25.09;57.70
69630;BME280;56857;52.212;5.496;2022-08-04T11:46:35;101424.16;;;25.06;56.88
69630;BME280;56857;52.212;5.496;2022-08-04T11:49:07;101423.03;;;25.19;57.03
69630;BME280;56857;52.212;5.496;2022-08-04T11:51:33;101420.41;;;25.51;56.66
69630;BME280;56857;52.212;5.496;2022-08-04T11:54:00;101422.84;;;25.80;55.62
69630;BME280;56857;52.212;5.496;2022-08-04T11:56:26;101424.72;;;26.01;55.50
69630;BME280;56857;52.212;5.496;2022-08-04T11:58:51;101426.50;;;26.23;55.09
69630;BME280;56857;52.212;5.496;2022-08-04T12:04:07;101440.84;;;26.88;53.48
69630;BME280;56857;52.212;5.496;2022-08-04T12:06:43;101443.59;;;26.98;52.06
69630;BME280;56857;52.212;5.496;2022-08-04T12:09:35;101432.63;;;26.83;51.76
69630;BME280;56857;52.212;5.496;2022-08-04T12:12:28;101428.44;;;27.12;51.43
69630;BME280;56857;52.212;5.496;2022-08-04T12:15:02;101421.00;;;27.70;50.38
69630;BME280;56857;52.212;5.496;2022-08-04T12:17:37;101424.03;;;28.30;50.16
69630;BME280;56857;52.212;5.496;2022-08-04T12:20:06;101420.44;;;28.81;48.81
69630;BME280;56857;52.212;5.496;2022-08-04T12:22:36;101417.38;;;29.03;47.46
69630;BME280;56857;52.212;5.496;2022-08-04T12:25:11;101415.78;;;28.86;45.56
69630;BME280;56857;52.212;5.496;2022-08-04T12:27:45;101419.06;;;28.88;46.71
69630;BME280;56857;52.212;5.496;2022-08-04T12:30:13;101427.16;;;29.14;46.99
69630;BME280;56857;52.212;5.496;2022-08-04T12:33:30;101424.25;;;28.80;47.67
69630;BME280;56857;52.212;5.496;2022-08-04T12:35:50;101425.38;;;28.74;46.30
69630;BME280;56857;52.212;5.496;2022-08-04T12:38:17;101423.66;;;28.93;46.79
69630;BME280;56857;52.212;5.496;2022-08-04T12:40:52;101437.47;;;29.22;47.31
69630;BME280;56857;52.212;5.496;2022-08-04T12:43:21;101439.31;;;29.42;46.55
69630;BME280;56857;52.212;5.496;2022-08-04T12:45:50;101436.59;;;29.37;45.31
69630;BME280;56857;52.212;5.496;2022-08-04T12:48:17;101441.34;;;29.16;45.90
69630;BME280;56857;52.212;5.496;2022-08-04T12:50:56;101439.88;;;29.39;44.45
69630;BME280;56857;52.212;5.496;2022-08-04T12:53:26;101433.91;;;29.82;46.12
69630;BME280;56857;52.212;5.496;2022-08-04T12:55:52;101427.84;;;29.90;43.83
69630;BME280;56857;52.212;5.496;2022-08-04T12:58:22;101426.94;;;29.55;44.00
69630;BME280;56857;52.212;5.496;2022-08-04T13:00:55;101431.13;;;29.37;44.60
69630;BME280;56857;52.212;5.496;2022-08-04T13:03:22;101429.75;;;29.45;45.38
69630;BME280;56857;52.212;5.496;2022-08-04T13:05:54;101416.25;;;30.03;45.26
69630;BME280;56857;52.212;5.496;2022-08-04T13:08:21;101423.78;;;30.16;44.55
69630;BME280;56857;52.212;5.496;2022-08-04T13:10:49;101420.41;;;30.30;43.55
69630;BME280;56857;52.212;5.496;2022-08-04T13:13:20;101430.94;;;30.12;42.76
69630;BME280;56857;52.212;5.496;2022-08-04T13:16:03;101426.50;;;29.82;43.34
69630;BME280;56857;52.212;5.496;2022-08-04T13:18:32;101428.34;;;29.47;44.49
69630;BME280;56857;52.212;5.496;2022-08-04T13:21:16;101427.78;;;29.50;44.94
69630;BME280;56857;52.212;5.496;2022-08-04T13:23:43;101429.53;;;29.81;44.63
69630;BME280;56857;52.212;5.496;2022-08-04T13:26:08;101429.06;;;30.08;45.14
69630;BME280;56857;52.212;5.496;2022-08-04T13:28:37;101428.34;;;29.47;44.23
69630;BME280;56857;52.212;5.496;2022-08-04T13:31:05;101431.81;;;29.08;44.91
69630;BME280;56857;52.212;5.496;2022-08-04T13:33:33;101427.78;;;28.85;45.05
69630;BME280;56857;52.212;5.496;2022-08-04T13:35:59;101433.56;;;28.79;45.45
69630;BME280;56857;52.212;5.496;2022-08-04T13:38:26;101436.06;;;28.45;45.46
69630;BME280;56857;52.212;5.496;2022-08-04T13:40:55;101428.44;;;28.31;46.64
69630;BME280;56857;52.212;5.496;2022-08-04T13:43:44;101438.50;;;28.10;45.75
69630;BME280;56857;52.212;5.496;2022-08-04T13:46:18;101428.16;;;28.23;45.33
69630;BME280;56857;52.212;5.496;2022-08-04T13:48:45;101439.88;;;28.23;46.19
69630;BME280;56857;52.212;5.496;2022-08-04T13:51:16;101434.69;;;28.11;45.84
69630;BME280;56857;52.212;5.496;2022-08-04T13:53:41;101433.59;;;27.97;46.77
69630;BME280;56857;52.212;5.496;2022-08-04T13:56:08;101440.13;;;27.81;46.62
69630;BME280;56857;52.212;5.496;2022-08-04T13:58:41;101442.31;;;27.84;47.00
69630;BME280;56857;52.212;5.496;2022-08-04T14:01:17;101436.19;;;27.41;45.89
69630;BME280;56857;52.212;5.496;2022-08-04T14:03:52;101443.81;;;27.44;47.20
69630;BME280;56857;52.212;5.496;2022-08-04T14:06:28;101438.16;;;27.71;47.71
69630;BME280;56857;52.212;5.496;2022-08-04T14:08:56;101439.81;;;27.62;46.62
69630;BME280;56857;52.212;5.496;2022-08-04T14:13:59;101431.97;;;28.06;47.28
69630;BME280;56857;52.212;5.496;2022-08-04T14:16:24;101430.59;;;28.24;46.94
69630;BME280;56857;52.212;5.496;2022-08-04T14:18:59;101440.16;;;28.06;45.91
69630;BME280;56857;52.212;5.496;2022-08-04T14:21:24;101439.03;;;27.92;45.96
69630;BME280;56857;52.212;5.496;2022-08-04T14:23:52;101430.31;;;27.85;45.86
69630;BME280;56857;52.212;5.496;2022-08-04T14:28:52;101430.31;;;27.80;46.05
69630;BME280;56857;52.212;5.496;2022-08-04T14:31:24;101422.91;;;27.65;46.23
69630;BME280;56857;52.212;5.496;2022-08-04T14:33:51;101429.16;;;27.70;46.05
69630;BME280;56857;52.212;5.496;2022-08-04T14:36:18;101421.00;;;27.65;46.43
69630;BME280;56857;52.212;5.496;2022-08-04T14:38:55;101421.81;;;27.61;44.99
69630;BME280;56857;52.212;5.496;2022-08-04T14:41:26;101418.28;;;27.65;47.17
69630;BME280;56857;52.212;5.496;2022-08-04T14:43:57;101423.44;;;27.67;45.97
69630;BME280;56857;52.212;5.496;2022-08-04T14:46:24;101428.31;;;27.55;46.89
69630;BME280;56857;52.212;5.496;2022-08-04T14:49:11;101417.44;;;27.55;46.35
69630;BME280;56857;52.212;5.496;2022-08-04T14:51:43;101425.34;;;27.61;45.89
69630;BME280;56857;52.212;5.496;2022-08-04T14:54:13;101427.22;;;27.45;46.11
69630;BME280;56857;52.212;5.496;2022-08-04T14:56:40;101433.16;;;27.32;46.55
69630;BME280;56857;52.212;5.496;2022-08-04T14:59:10;101432.38;;;27.37;46.74
69630;BME280;56857;52.212;5.496;2022-08-04T15:01:37;101436.47;;;27.44;46.97
69630;BME280;56857;52.212;5.496;2022-08-04T15:04:05;101427.47;;;27.34;46.96
69630;BME280;56857;52.212;5.496;2022-08-04T15:06:31;101437.78;;;27.26;46.38
69630;BME280;56857;52.212;5.496;2022-08-04T15:09:03;101450.47;;;27.11;47.07
69630;BME280;56857;52.212;5.496;2022-08-04T15:11:29;101444.38;;;26.88;47.20
69630;BME280;56857;52.212;5.496;2022-08-04T15:13:56;101448.44;;;26.86;47.77
69630;BME280;56857;52.212;5.496;2022-08-04T15:16:23;101450.84;;;26.77;48.04
69630;BME280;56857;52.212;5.496;2022-08-04T15:18:49;101440.78;;;26.77;48.24
69630;BME280;56857;52.212;5.496;2022-08-04T15:21:15;101435.59;;;26.76;48.13
69630;BME280;56857;52.212;5.496;2022-08-04T15:23:41;101441.56;;;26.68;48.05
69630;BME280;56857;52.212;5.496;2022-08-04T15:26:10;101443.88;;;26.49;47.70
69630;BME280;56857;52.212;5.496;2022-08-04T15:28:39;101441.38;;;26.47;47.96
69630;BME280;56857;52.212;5.496;2022-08-04T15:31:05;101447.59;;;26.43;47.47
69630;BME280;56857;52.212;5.496;2022-08-04T15:33:33;101451.81;;;26.23;48.66
69630;BME280;56857;52.212;5.496;2022-08-04T15:36:14;101453.25;;;26.04;48.29
69630;BME280;56857;52.212;5.496;2022-08-04T15:38:49;101463.22;;;25.93;48.35
69630;BME280;56857;52.212;5.496;2022-08-04T15:41:36;101465.56;;;25.84;48.24
69630;BME280;56857;52.212;5.496;2022-08-04T15:44:45;101462.66;;;25.69;48.63
69630;BME280;56857;52.212;5.496;2022-08-04T15:47:14;101468.75;;;25.54;49.11
69630;BME280;56857;52.212;5.496;2022-08-04T15:49:41;101461.50;;;25.38;49.41
69630;BME280;56857;52.212;5.496;2022-08-04T15:52:12;101463.19;;;25.44;49.58
69630;BME280;56857;52.212;5.496;2022-08-04T15:54:38;101457.31;;;25.52;49.30
69630;BME280;56857;52.212;5.496;2022-08-04T15:57:05;101457.00;;;25.49;49.50
69630;BME280;56857;52.212;5.496;2022-08-04T16:12:58;101467.47;;;25.40;49.47
69630;BME280;56857;52.212;5.496;2022-08-04T16:15:40;101470.97;;;25.35;50.17
69630;BME280;56857;52.212;5.496;2022-08-04T16:18:07;101475.81;;;25.33;50.90
69630;BME280;56857;52.212;5.496;2022-08-04T16:20:34;101475.44;;;25.25;50.91
69630;BME280;56857;52.212;5.496;2022-08-04T16:23:15;101478.84;;;25.15;51.10
69630;BME280;56857;52.212;5.496;2022-08-04T16:25:46;101483.53;;;25.03;51.57
69630;BME280;56857;52.212;5.496;2022-08-04T16:28:41;101486.34;;;24.91;51.29
69630;BME280;56857;52.212;5.496;2022-08-04T16:31:08;101483.41;;;24.76;51.01
69630;BME280;56857;52.212;5.496;2022-08-04T16:33:34;101487.19;;;24.58;51.07